createdAt,value
2018-06-19T00:00:46.264Z,2.90
2018-06-19T00:03:14.766Z,2.67
2018-06-19T00:05:43.244Z,3.33
2018-06-19T00:08:11.668Z,3.08
2018-06-19T00:10:40.112Z,3.77
2018-06-19T00:13:08.539Z,6.03
2018-06-19T00:15:37.105Z,3.72
2018-06-19T00:18:13.720Z,2.85
2018-06-19T00:20:42.240Z,3.40
2018-06-19T00:23:10.717Z,3.33
2018-06-19T00:25:39.235Z,3.35
2018-06-19T00:28:07.681Z,3.58
2018-06-19T00:30:36.140Z,3.17
2018-06-19T00:33:04.620Z,2.92
2018-06-19T00:35:33.423Z,3.37
2018-06-19T00:38:01.868Z,3.45
2018-06-19T00:40:30.294Z,3.98
2018-06-19T00:42:58.764Z,3.85
2018-06-19T00:45:27.216Z,3.83
2018-06-19T00:47:55.668Z,3.98
2018-06-19T00:50:24.113Z,3.62
2018-06-19T00:52:52.563Z,3.90
2018-06-19T00:55:20.672Z,3.37
2018-06-19T00:57:49.127Z,3.77
2018-06-19T01:00:17.565Z,3.85
2018-06-19T01:02:46.065Z,3.77
2018-06-19T01:05:14.184Z,3.33
2018-06-19T01:07:42.658Z,3.83
2018-06-19T01:10:11.088Z,3.50
2018-06-19T01:12:39.563Z,3.72
2018-06-19T01:15:07.988Z,4.25
2018-06-19T01:17:37.408Z,4.12
2018-06-19T01:20:06.681Z,4.10
2018-06-19T01:22:35.127Z,3.85
2018-06-19T01:25:03.604Z,4.00
2018-06-19T01:27:32.049Z,4.35
2018-06-19T01:30:00.477Z,4.45
2018-06-19T01:32:28.945Z,3.60
2018-06-19T01:34:57.359Z,4.42
2018-06-19T01:37:25.817Z,4.90
2018-06-19T01:39:54.309Z,4.10
2018-06-19T01:42:22.768Z,4.35
2018-06-19T01:44:51.188Z,4.30
2018-06-19T01:47:19.629Z,3.90
2018-06-19T01:49:48.028Z,3.98
2018-06-19T01:52:16.485Z,4.58
2018-06-19T01:54:44.955Z,3.90
2018-06-19T01:57:13.397Z,3.77
2018-06-19T01:59:41.557Z,3.58
2018-06-19T02:02:10.269Z,4.20
2018-06-19T02:04:38.673Z,3.92
2018-06-19T02:07:07.173Z,3.75
2018-06-19T02:09:35.592Z,3.65
2018-06-19T02:12:04.044Z,4.05
2018-06-19T02:14:32.486Z,3.80
2018-06-19T02:17:00.904Z,4.83
2018-06-19T02:19:29.365Z,3.83
2018-06-19T02:21:57.769Z,4.50
2018-06-19T02:24:26.229Z,3.87
2018-06-19T02:26:54.657Z,4.45
2018-06-19T02:29:23.165Z,4.47
2018-06-19T02:31:51.589Z,4.53
2018-06-19T02:34:20.030Z,4.70
2018-06-19T02:36:48.485Z,4.28
2018-06-19T02:39:16.932Z,4.33
2018-06-19T02:41:45.447Z,4.20
2018-06-19T02:44:13.896Z,4.28
2018-06-19T02:46:42.480Z,4.05
2018-06-19T02:49:10.933Z,4.20
2018-06-19T02:51:39.341Z,4.55
2018-06-19T02:54:07.792Z,4.62
2018-06-19T02:56:36.331Z,4.58
2018-06-19T02:59:04.821Z,5.20
2018-06-19T03:01:33.247Z,4.45
2018-06-19T03:04:01.719Z,4.60
2018-06-19T03:06:30.153Z,4.85
2018-06-19T03:08:58.612Z,4.53
2018-06-19T03:11:27.317Z,4.75
2018-06-19T03:13:55.452Z,4.78
2018-06-19T03:16:23.908Z,5.22
2018-06-19T03:18:52.364Z,4.65
2018-06-19T03:21:20.785Z,4.30
2018-06-19T03:23:49.232Z,4.58
2018-06-19T03:26:17.667Z,3.92
2018-06-19T03:28:46.156Z,4.17
2018-06-19T03:31:14.295Z,4.67
2018-06-19T03:33:42.743Z,4.10
2018-06-19T03:36:11.148Z,4.15
2018-06-19T03:38:39.640Z,4.60
2018-06-19T03:41:08.056Z,4.55
2018-06-19T03:43:36.508Z,4.72
2018-06-19T03:46:05.226Z,4.00
2018-06-19T03:48:33.695Z,4.10
2018-06-19T03:51:02.352Z,3.92
2018-06-19T03:53:30.802Z,4.30
2018-06-19T03:55:59.220Z,4.30
2018-06-19T03:58:27.671Z,4.67
2018-06-19T04:00:56.070Z,4.30
2018-06-19T04:03:24.549Z,3.95
2018-06-19T04:05:52.979Z,4.20
2018-06-19T04:08:21.383Z,4.12
2018-06-19T04:10:49.824Z,4.25
2018-06-19T04:13:18.241Z,4.30
2018-06-19T04:15:46.698Z,3.52
2018-06-19T04:18:15.121Z,3.90
2018-06-19T04:20:43.547Z,3.70
2018-06-19T04:23:11.937Z,4.08
2018-06-19T04:25:40.396Z,4.08
2018-06-19T04:28:08.508Z,4.15
2018-06-19T04:30:36.960Z,3.55
2018-06-19T04:33:05.388Z,3.70
2018-06-19T04:35:33.829Z,3.55
2018-06-19T04:38:02.246Z,3.60
2018-06-19T04:40:30.693Z,3.50
2018-06-19T04:42:58.872Z,3.60
2018-06-19T04:45:27.341Z,3.27
2018-06-19T04:47:55.764Z,3.22
2018-06-19T04:50:24.208Z,3.22
2018-06-19T04:52:52.625Z,3.15
2018-06-19T04:55:21.092Z,3.10
2018-06-19T04:57:49.505Z,2.95
2018-06-19T05:00:17.956Z,3.30
2018-06-19T05:02:46.436Z,3.35
2018-06-19T05:05:14.938Z,3.15
2018-06-19T05:07:43.341Z,3.67
2018-06-19T05:10:11.780Z,3.30
2018-06-19T05:12:40.190Z,3.25
2018-06-19T05:15:08.737Z,3.30
2018-06-19T05:17:37.167Z,2.87
2018-06-19T05:20:05.641Z,2.83
2018-06-19T05:22:34.069Z,3.37
2018-06-19T05:25:02.553Z,2.90
2018-06-19T05:27:30.976Z,3.52
2018-06-19T05:29:59.428Z,2.98
2018-06-19T05:32:27.552Z,3.08
2018-06-19T05:34:56.042Z,2.65
2018-06-19T05:37:24.467Z,3.10
2018-06-19T05:39:52.874Z,3.10
2018-06-19T05:42:21.340Z,2.77
2018-06-19T05:44:49.818Z,3.67
2018-06-19T05:47:18.268Z,2.45
2018-06-19T05:49:46.772Z,2.50
2018-06-19T05:52:15.245Z,3.08
2018-06-19T05:54:43.676Z,2.45
2018-06-19T05:57:12.152Z,2.58
2018-06-19T05:59:40.606Z,2.52
2018-06-19T06:02:09.210Z,1.90
2018-06-19T06:04:37.641Z,2.33
2018-06-19T06:07:06.228Z,2.25
2018-06-19T06:09:34.693Z,2.25
2018-06-19T06:12:03.140Z,2.37
2018-06-19T06:14:31.572Z,2.10
2018-06-19T06:17:00.054Z,2.22
2018-06-19T06:19:28.513Z,2.22
2018-06-19T06:21:56.962Z,2.10
2018-06-19T06:24:25.405Z,2.72
2018-06-19T06:26:53.868Z,1.20
2018-06-19T06:29:22.256Z,1.75
2018-06-19T06:31:50.720Z,2.10
2018-06-19T06:34:19.181Z,1.67
2018-06-19T06:36:47.661Z,1.50
2018-06-19T06:39:16.066Z,1.40
2018-06-19T06:41:44.516Z,1.67
2018-06-19T06:44:12.977Z,1.47
2018-06-19T06:46:41.426Z,1.40
2018-06-19T06:49:09.549Z,0.93
2018-06-19T06:51:37.993Z,1.42
2018-06-19T06:54:06.419Z,1.62
2018-06-19T06:56:34.871Z,1.40
2018-06-19T06:59:03.334Z,1.10
2018-06-19T07:01:31.797Z,1.37
2018-06-19T07:04:00.261Z,1.10
2018-06-19T07:06:28.766Z,1.30
2018-06-19T07:08:57.207Z,1.42
2018-06-19T07:11:25.659Z,1.02
2018-06-19T07:13:54.136Z,1.02
2018-06-19T07:16:22.605Z,1.30
2018-06-19T07:18:51.117Z,1.10
2018-06-19T07:21:19.601Z,0.90
2018-06-19T07:23:48.053Z,0.90
2018-06-19T07:26:16.593Z,0.88
2018-06-19T07:28:44.988Z,0.60
2018-06-19T07:31:13.425Z,0.80
2018-06-19T07:33:41.890Z,0.80
2018-06-19T07:36:10.505Z,0.80
2018-06-19T07:38:38.977Z,0.62
2018-06-19T07:41:07.463Z,1.00
2018-06-19T07:43:35.913Z,0.90
2018-06-19T07:46:04.328Z,0.90
2018-06-19T07:48:32.764Z,0.70
2018-06-19T07:51:01.172Z,1.10
2018-06-19T07:53:29.932Z,0.90
2018-06-19T07:55:58.343Z,0.68
2018-06-19T07:58:27.005Z,1.00
2018-06-19T08:00:55.433Z,0.90
2018-06-19T08:03:23.904Z,0.82
2018-06-19T08:05:52.332Z,0.70
2018-06-19T08:08:20.936Z,1.00
2018-06-19T08:10:49.421Z,0.90
2018-06-19T08:13:17.890Z,0.88
2018-06-19T08:15:46.296Z,0.65
2018-06-19T08:18:14.744Z,0.90
2018-06-19T08:20:43.159Z,0.90
2018-06-19T08:23:11.816Z,1.02
2018-06-19T08:25:40.229Z,1.00
2018-06-19T08:28:08.681Z,0.82
2018-06-19T08:30:37.156Z,1.05
2018-06-19T08:33:05.800Z,0.98
2018-06-19T08:35:34.230Z,1.15
2018-06-19T08:38:02.676Z,1.05
2018-06-19T08:40:31.112Z,0.80
2018-06-19T08:42:59.560Z,1.10
2018-06-19T08:45:27.988Z,0.80
2018-06-19T08:47:56.444Z,0.80
2018-06-19T08:50:24.884Z,0.85
2018-06-19T08:52:53.472Z,0.80
2018-06-19T08:55:21.925Z,0.80
2018-06-19T08:57:50.454Z,0.90
2018-06-19T09:00:18.903Z,1.17
2018-06-19T09:02:47.361Z,0.90
2018-06-19T09:05:15.834Z,1.00
2018-06-19T09:07:44.372Z,0.95
2018-06-19T09:10:12.800Z,0.88
2018-06-19T09:12:41.252Z,0.78
2018-06-19T09:15:09.863Z,1.00
2018-06-19T09:17:38.286Z,0.70
2018-06-19T09:20:06.813Z,1.00
2018-06-19T09:22:35.219Z,1.20
2018-06-19T09:25:03.733Z,1.00
2018-06-19T09:27:32.145Z,0.80
2018-06-19T09:30:00.592Z,1.20
2018-06-19T09:32:29.068Z,0.95
2018-06-19T09:34:57.529Z,0.85
2018-06-19T09:37:25.937Z,0.98
2018-06-19T09:39:54.373Z,0.65
2018-06-19T09:42:22.794Z,0.80
2018-06-19T09:44:51.241Z,0.62
2018-06-19T09:47:19.780Z,0.82
2018-06-19T09:49:48.237Z,1.10
2018-06-19T09:52:16.788Z,0.68
2018-06-19T09:54:45.472Z,1.00
2018-06-19T09:57:13.896Z,0.90
2018-06-19T09:59:42.395Z,0.93
2018-06-19T10:02:10.960Z,0.82
2018-06-19T10:04:39.458Z,1.10
2018-06-19T10:07:07.885Z,0.90
2018-06-19T10:09:36.379Z,1.00
2018-06-19T10:12:04.900Z,0.90
2018-06-19T10:14:33.305Z,1.00
2018-06-19T10:17:01.732Z,0.93
2018-06-19T10:19:30.170Z,0.90
2018-06-19T10:21:58.662Z,1.02
2018-06-19T10:24:27.109Z,1.00
2018-06-19T10:26:55.563Z,1.02
2018-06-19T10:29:24.003Z,1.02
2018-06-19T10:31:52.427Z,0.88
2018-06-19T10:34:20.897Z,0.80
2018-06-19T10:36:49.313Z,0.93
2018-06-19T10:39:17.916Z,1.00
2018-06-19T10:41:46.331Z,1.00
2018-06-19T10:44:14.764Z,1.22
2018-06-19T10:46:43.180Z,0.90
2018-06-19T10:49:11.600Z,0.90
2018-06-19T10:51:40.065Z,1.20
2018-06-19T10:54:08.681Z,0.70
2018-06-19T10:56:37.163Z,0.78
2018-06-19T10:59:05.657Z,1.10
2018-06-19T11:01:34.149Z,1.00
2018-06-19T11:04:02.612Z,1.00
2018-06-19T11:06:31.064Z,1.00
2018-06-19T11:08:59.502Z,0.80
2018-06-19T11:11:27.987Z,1.10
2018-06-19T11:13:56.464Z,0.80
2018-06-19T11:16:24.921Z,0.80
2018-06-19T11:18:53.414Z,0.90
2018-06-19T11:21:21.951Z,0.80
2018-06-19T11:23:50.474Z,0.98
2018-06-19T11:26:18.900Z,0.78
2018-06-19T11:28:47.323Z,0.88
2018-06-19T11:31:15.813Z,0.78
2018-06-19T11:33:44.232Z,0.90
2018-06-19T11:36:12.698Z,1.05
2018-06-19T11:38:41.111Z,0.98
2018-06-19T11:41:09.576Z,0.80
2018-06-19T11:43:38.038Z,1.00
2018-06-19T11:46:06.521Z,0.85
2018-06-19T11:48:34.945Z,0.82
2018-06-19T11:51:03.559Z,0.80
2018-06-19T11:53:31.970Z,0.88
2018-06-19T11:56:00.449Z,1.00
2018-06-19T11:58:28.897Z,0.80
2018-06-19T12:00:57.565Z,0.80
2018-06-19T12:03:26.020Z,0.78
2018-06-19T12:05:54.491Z,0.98
2018-06-19T12:08:22.900Z,0.90
2018-06-19T12:10:51.465Z,0.90
2018-06-19T12:13:19.968Z,0.78
2018-06-19T12:15:48.416Z,0.80
2018-06-19T12:18:18.056Z,1.02
2018-06-19T12:20:46.773Z,0.70
2018-06-19T12:23:15.560Z,0.80
2018-06-19T12:25:44.020Z,0.80
2018-06-19T12:28:12.469Z,0.80
2018-06-19T12:30:41.288Z,0.90
2018-06-19T12:33:09.688Z,0.90
2018-06-19T12:35:38.176Z,0.80
2018-06-19T12:38:06.593Z,0.80
2018-06-19T12:40:35.028Z,0.88
2018-06-19T12:43:03.542Z,0.93
2018-06-19T12:45:31.932Z,0.85
2018-06-19T12:48:00.373Z,0.90
2018-06-19T12:50:41.400Z,1.10
2018-06-19T12:53:21.585Z,0.95
2018-06-19T12:56:02.071Z,0.90
2018-06-19T12:58:30.583Z,1.10
2018-06-19T13:00:59.007Z,1.10
2018-06-19T13:04:39.128Z,0.80
2018-06-19T13:07:07.611Z,0.98
2018-06-19T13:09:36.031Z,1.10
2018-06-19T13:12:04.577Z,1.10
2018-06-19T13:14:40.654Z,0.80
2018-06-19T13:17:20.583Z,1.00
2018-06-19T13:20:00.300Z,0.90
2018-06-19T13:22:28.777Z,1.20
2018-06-19T13:24:56.882Z,1.10
2018-06-19T13:27:25.344Z,0.70
2018-06-19T13:31:05.290Z,0.82
2018-06-19T13:33:33.749Z,0.80
2018-06-19T13:36:02.203Z,0.88
2018-06-19T13:38:30.666Z,0.75
2018-06-19T13:41:19.087Z,0.70
2018-06-19T13:44:00.366Z,0.60
2018-06-19T13:46:29.129Z,0.70
2018-06-19T13:48:57.638Z,0.82
2018-06-19T13:51:26.089Z,0.70
2018-06-19T13:53:54.558Z,0.95
2018-06-19T13:57:33.097Z,1.02
2018-06-19T14:00:02.950Z,1.17
2018-06-19T14:02:31.480Z,0.80
2018-06-19T14:05:00.717Z,0.78
2018-06-19T14:07:30.050Z,0.90
2018-06-19T14:10:09.776Z,0.78
2018-06-19T14:13:17.208Z,0.82
2018-06-19T14:15:48.023Z,1.00
2018-06-19T14:18:17.548Z,0.80
2018-06-19T14:20:46.024Z,0.93
2018-06-19T14:23:14.713Z,0.80
2018-06-19T14:25:43.124Z,0.90
2018-06-19T14:28:11.673Z,1.00
2018-06-19T14:30:40.309Z,0.90
2018-06-19T14:33:08.878Z,1.05
2018-06-19T14:35:37.311Z,0.80
2018-06-19T14:38:05.897Z,0.82
2018-06-19T14:40:34.348Z,1.10
2018-06-19T14:43:02.789Z,1.10
2018-06-19T14:45:31.348Z,0.90
2018-06-19T14:48:00.059Z,1.00
2018-06-19T14:50:28.552Z,1.00
2018-06-19T14:52:56.964Z,0.70
2018-06-19T14:55:25.610Z,1.00
2018-06-19T14:57:54.061Z,0.80
2018-06-19T15:00:22.512Z,1.00
2018-06-19T15:02:50.981Z,0.90
2018-06-19T15:05:19.502Z,0.90
2018-06-19T15:07:51.808Z,0.90
2018-06-19T15:10:20.369Z,1.00
2018-06-19T15:12:48.732Z,0.95
2018-06-19T15:15:17.221Z,0.90
2018-06-19T15:17:45.683Z,0.85
2018-06-19T15:20:13.856Z,1.00
2018-06-19T15:22:42.324Z,0.80
2018-06-19T15:25:10.785Z,0.88
2018-06-19T15:27:39.257Z,0.78
2018-06-19T15:30:07.729Z,0.90
2018-06-19T15:32:36.368Z,0.75
2018-06-19T15:35:04.843Z,0.98
2018-06-19T15:37:33.280Z,1.17
2018-06-19T15:40:01.761Z,0.82
2018-06-19T15:42:30.180Z,0.62
2018-06-19T15:44:58.690Z,1.12
2018-06-19T15:47:27.180Z,1.00
2018-06-19T15:49:55.698Z,0.60
2018-06-19T15:52:24.216Z,0.85
2018-06-19T15:54:52.684Z,0.93
2018-06-19T15:57:21.309Z,0.80
2018-06-19T15:59:49.732Z,1.00
2018-06-19T16:02:18.392Z,1.10
2018-06-19T16:04:46.789Z,1.02
2018-06-19T16:07:15.263Z,0.98
2018-06-19T16:09:43.712Z,0.90
2018-06-19T16:12:12.262Z,1.07
2018-06-19T16:14:41.160Z,1.00
2018-06-19T16:17:09.632Z,1.00
2018-06-19T16:19:38.051Z,0.90
2018-06-19T16:22:06.532Z,0.80
2018-06-19T16:24:34.680Z,0.80
2018-06-19T16:27:03.153Z,0.90
2018-06-19T16:29:31.616Z,0.80
2018-06-19T16:32:00.165Z,0.80
2018-06-19T16:34:28.616Z,0.98
2018-06-19T16:36:57.079Z,0.80
2018-06-19T16:39:25.505Z,0.90
2018-06-19T16:41:53.969Z,0.80
2018-06-19T16:44:22.397Z,0.70
2018-06-19T16:46:50.800Z,0.98
2018-06-19T16:49:19.523Z,0.90
2018-06-19T16:51:47.932Z,1.20
2018-06-19T16:54:16.389Z,0.70
2018-06-19T16:56:44.857Z,1.05
2018-06-19T16:59:13.320Z,0.90
2018-06-19T17:01:41.830Z,0.80
2018-06-19T17:04:10.376Z,1.00
2018-06-19T17:06:38.848Z,1.20
2018-06-19T17:09:07.893Z,1.10
2018-06-19T17:11:36.396Z,0.80
2018-06-19T17:14:05.105Z,0.95
2018-06-19T17:16:33.672Z,0.70
2018-06-19T17:19:02.222Z,0.95
2018-06-19T17:21:30.709Z,0.98
2018-06-19T17:23:59.432Z,0.88
2018-06-19T17:26:27.877Z,0.98
2018-06-19T17:28:56.497Z,0.90
2018-06-19T17:31:25.044Z,0.80
2018-06-19T17:33:53.501Z,1.00
2018-06-19T17:36:21.953Z,1.10
2018-06-19T17:38:50.388Z,0.90
2018-06-19T17:41:18.860Z,0.80
2018-06-19T17:43:47.192Z,0.90
2018-06-19T17:46:15.653Z,1.00
2018-06-19T17:48:44.145Z,0.80
2018-06-19T17:51:12.593Z,0.90
2018-06-19T17:53:41.115Z,0.95
2018-06-19T17:56:10.205Z,0.98
2018-06-19T17:58:38.676Z,0.80
2018-06-19T18:01:07.169Z,0.90
2018-06-19T18:03:35.680Z,0.60
2018-06-19T18:06:04.121Z,0.88
2018-06-19T18:08:32.995Z,0.70
2018-06-19T18:11:01.460Z,0.75
2018-06-19T18:13:30.042Z,0.62
2018-06-19T18:15:58.681Z,0.85
2018-06-19T18:18:27.123Z,0.75
2018-06-19T18:20:55.569Z,1.02
2018-06-19T18:23:24.016Z,0.60
2018-06-19T18:25:52.424Z,0.65
2018-06-19T18:28:21.090Z,0.70
2018-06-19T18:30:49.520Z,0.70
2018-06-19T18:33:17.997Z,0.53
2018-06-19T18:35:46.457Z,0.70
2018-06-19T18:38:14.870Z,0.85
2018-06-19T18:40:43.342Z,0.80
2018-06-19T18:43:11.764Z,0.70
2018-06-19T18:45:40.253Z,0.68
2018-06-19T18:48:08.717Z,0.82
2018-06-19T18:50:37.293Z,1.00
2018-06-19T18:53:05.725Z,0.80
2018-06-19T18:55:34.200Z,0.80
2018-06-19T18:58:02.629Z,0.90
2018-06-19T19:00:31.116Z,1.00
2018-06-19T19:02:59.605Z,0.80
2018-06-19T19:05:28.025Z,1.00
2018-06-19T19:07:56.442Z,0.95
2018-06-19T19:10:30.241Z,0.85
2018-06-19T19:12:58.682Z,0.80
2018-06-19T19:15:32.651Z,1.15
2018-06-19T19:18:06.360Z,0.88
2018-06-19T19:20:34.860Z,1.10
2018-06-19T19:23:03.278Z,0.80
2018-06-19T19:25:31.727Z,0.90
2018-06-19T19:28:05.508Z,0.90
2018-06-19T19:30:33.985Z,1.12
2018-06-19T19:33:02.492Z,0.82
2018-06-19T19:35:30.966Z,1.02
2018-06-19T19:38:04.728Z,1.07
2018-06-19T19:40:33.271Z,1.10
2018-06-19T19:43:01.674Z,0.90
2018-06-19T19:45:30.127Z,0.82
2018-06-19T19:48:03.863Z,0.98
2018-06-19T19:50:32.381Z,1.00
2018-06-19T19:53:00.828Z,0.93
2018-06-19T19:55:29.277Z,1.17
2018-06-19T19:58:03.138Z,1.15
2018-06-19T20:00:31.648Z,1.25
2018-06-19T20:03:00.090Z,1.10
2018-06-19T20:05:28.791Z,0.88
2018-06-19T20:07:57.212Z,1.30
2018-06-19T20:10:25.682Z,1.30
2018-06-19T20:12:54.165Z,1.30
2018-06-19T20:15:22.748Z,1.20
2018-06-19T20:17:51.477Z,1.62
2018-06-19T20:20:19.916Z,1.27
2018-06-19T20:22:48.328Z,1.55
2018-06-19T20:25:16.780Z,1.42
2018-06-19T20:27:45.202Z,1.02
2018-06-19T20:30:13.656Z,1.37
2018-06-19T20:32:41.864Z,1.20
2018-06-19T20:35:10.333Z,1.50
2018-06-19T20:37:38.752Z,1.15
2018-06-19T20:40:07.265Z,1.07
2018-06-19T20:42:35.964Z,1.35
2018-06-19T20:45:04.494Z,1.30
2018-06-19T20:47:32.980Z,1.40
2018-06-19T20:50:01.117Z,1.25
2018-06-19T20:52:29.572Z,1.67
2018-06-19T20:54:57.988Z,1.60
2018-06-19T20:57:26.440Z,1.30
2018-06-19T20:59:54.874Z,1.62
2018-06-19T21:02:23.432Z,1.32
2018-06-19T21:04:51.872Z,1.52
2018-06-19T21:07:20.352Z,1.90
2018-06-19T21:09:48.769Z,1.87
2018-06-19T21:12:17.238Z,1.85
2018-06-19T21:14:45.704Z,1.42
2018-06-19T21:17:14.178Z,1.60
2018-06-19T21:19:42.714Z,1.75
2018-06-19T21:22:11.158Z,1.47
2018-06-19T21:24:39.624Z,1.87
2018-06-19T21:27:08.069Z,1.60
2018-06-19T21:29:36.489Z,1.85
2018-06-19T21:32:04.937Z,1.80
2018-06-19T21:34:33.376Z,2.10
2018-06-19T21:37:01.863Z,2.20
2018-06-19T21:39:30.273Z,2.30
2018-06-19T21:41:58.720Z,2.50
2018-06-19T21:44:27.139Z,1.82
2018-06-19T21:46:55.588Z,1.80
2018-06-19T21:49:24.039Z,2.10
2018-06-19T21:51:52.484Z,2.33
2018-06-19T21:54:20.899Z,1.70
2018-06-19T21:56:49.372Z,1.70
2018-06-19T21:59:17.860Z,1.82
2018-06-19T22:01:46.344Z,1.80
2018-06-19T22:04:14.769Z,1.60
2018-06-19T22:06:43.248Z,1.70
2018-06-19T22:09:11.677Z,2.02
2018-06-19T22:11:40.074Z,2.50
2018-06-19T22:14:08.529Z,1.92
2018-06-19T22:16:36.949Z,2.02
2018-06-19T22:19:05.413Z,1.92
2018-06-19T22:21:33.809Z,1.80
2018-06-19T22:24:02.316Z,1.82
2018-06-19T22:26:30.740Z,2.00
2018-06-19T22:28:59.398Z,2.30
2018-06-19T22:31:27.821Z,2.22
2018-06-19T22:33:56.388Z,1.82
2018-06-19T22:36:24.772Z,2.37
2018-06-19T22:38:53.205Z,2.30
2018-06-19T22:41:21.688Z,1.95
2018-06-19T22:43:50.128Z,1.90
2018-06-19T22:46:18.532Z,2.08
2018-06-19T22:48:46.964Z,2.37
2018-06-19T22:51:15.363Z,2.37
2018-06-19T22:53:43.799Z,2.30
2018-06-19T22:56:12.228Z,2.25
2018-06-19T22:58:40.658Z,2.12
2018-06-19T23:01:09.057Z,2.62
2018-06-19T23:03:37.533Z,2.20
2018-06-19T23:06:06.209Z,2.35
2018-06-19T23:08:35.145Z,2.17
2018-06-19T23:11:04.005Z,2.50
2018-06-19T23:13:32.460Z,2.10
2018-06-19T23:16:00.872Z,2.27
2018-06-19T23:18:29.308Z,2.37
2018-06-19T23:20:57.715Z,2.17
2018-06-19T23:23:26.165Z,1.80
2018-06-19T23:25:54.585Z,2.27
2018-06-19T23:28:23.025Z,2.17
2018-06-19T23:30:51.424Z,2.50
2018-06-19T23:33:19.884Z,2.33
2018-06-19T23:35:48.349Z,2.12
2018-06-19T23:38:16.824Z,2.00
2018-06-19T23:40:45.309Z,1.82
2018-06-19T23:43:13.745Z,2.47
2018-06-19T23:45:42.190Z,1.80
2018-06-19T23:48:10.713Z,2.27
2018-06-19T23:50:39.185Z,2.20
2018-06-19T23:53:07.646Z,2.40
2018-06-19T23:55:36.093Z,1.90
2018-06-19T23:58:04.684Z,2.05
